Terminal Aerodrome Forecast
Issued by NWS Bismarck, ND

Home | Current Version | Previous Version | Graphics & Text | Print | Product List | Glossary On
Versions: 1 2 3 4 5 6 7 8 9 10 11 12 13 14 15 16 17 18 19 20
966
FTUS43 KBIS 260540
TAFBIS
TAF
KBIS 260540Z 2606/2706 04006KT 3SM -RA BKN008 OVC015
      TEMPO 2606/2610 6SM BR SCT008 OVC015
     FM261100 05006KT P6SM OVC008
     FM261900 07009KT P6SM OVC015
     FM262100 07010KT P6SM OVC015
     FM270300 06008KT P6SM VCSH OVC010=

USA.gov is the U.S. government's official web portal to all federal, state and local government web resources and services.